x

Southern Lake Huron (45149) Wave Buoy

2:00pm - Wed 31st Aug 2016 All times are CDT. -5 hours from GMT.

  • Sig Wave height 3.3ft
  • Peak Period 6s
  • Wind
    16mph, 20mph gusts
  • Air Temp 70°f
  • Sea Pressure 1015.5mb
  • Southern Lake Huron
  • Southern Lake Huron

More Historic Weather Station data

Upgrade to MSW Pro to gain access to the past 30 days of data for over 8000 Wavebouys and Weather Stations around the globe.

Join Pro

Comparision Forecast

View Surf forecast
   
Wed 08/31 2:00pm 3.5ft 6s 16 20 mph 1015.5mb 70f
1:00pm 3.5ft 6s 16 18 mph 1015.7mb 69f
12:00pm 3.5ft 5s 16 18 mph 1015.5mb 69f
11:00am 3.5ft 5s 16 18 mph 1015.9mb 69f
10:00am 2.5ft 5s 13 16 mph 1015.8mb 69f
9:00am 2.5ft 4s 11 13 mph 1015.4mb 70f
7:00am 2ft 4s 11 13 mph 1015.5mb 70f
6:00am 1.6ft 3s 13 18 mph 1015.3mb 72f
5:00am 1.3ft 3s 16 18 mph 1015mb 72f
4:00am 1.3ft 14s 13 16 mph 1015mb 72f
3:00am 1ft 4s 13 16 mph 1015.1mb 73f
2:00am 1ft 4s 9 11 mph 1015.4mb 73f
1:00am 1ft 4s 7
mph
1015.6mb 73f
12:00am 1ft 3s 4 7 mph 1015.7mb 73f
Tue 08/30 10:00pm 1ft 2s 4 7 mph 1016.5mb 72f
9:00pm 1.3ft 3s 9 11 mph 1017.1mb 73f
8:00pm 1.6ft 3s 9 11 mph 1016.4mb 74f
7:00pm 1.6ft 3s 13 16 mph 1016.2mb 75f
6:00pm 1.3ft 3s 13 16 mph 1016.5mb 75f
5:00pm 1ft 2s 16 20 mph 1016.6mb 76f
4:00pm 1ft 2s 9 11 mph 1017.2mb 76f
3:00pm 1ft 3s 9 11 mph 1017.4mb 76f
2:00pm 1ft 3s 9 11 mph 1018.1mb 75f
1:00pm 1.3ft 3s 9 11 mph 1018.9mb 75f
12:00pm 1.3ft 3s 11 13 mph 1019.5mb 73f
11:00am 1.3ft 3s 13
mph
1020.2mb 73f
10:00am 1.3ft 3s 11 13 mph 1020.4mb 73f
9:00am 1ft 3s 11 13 mph 1020.9mb 73f
8:00am 1ft 2s 11 13 mph 1021.3mb 72f
6:00am 1ft 2s 9 11 mph 1021.3mb 72f
5:00am 0.7ft 15s 9 11 mph 1021.1mb 73f
4:00am 0.7ft 2s 9 11 mph 1021.7mb 72f
3:00am 0.3ft 2s 7 9 mph 1021.7mb 72f
2:00am 0.3ft 2s 7 9 mph 1022.2mb 72f
1:00am 0.3ft 3s 9
mph
1022.2mb 71f
12:00am 0.3ft 3s 7
mph
1022.2mb 72f
Mon 08/29 11:00pm 0.7ft 4s 4
mph
1022.4mb 72f
10:00pm 0.7ft 4s 4
mph
1022.6mb 71f
9:00pm 0.7ft 4s 2 4 mph 1023.4mb 71f
8:00pm 0.7ft 4s 7
mph
1023.3mb 71f
7:00pm 0.7ft 4s 4 7 mph 1023.1mb 72f
6:00pm 1ft 4s 7 9 mph 1023.2mb 72f
5:00pm 1ft 4s 4 7 mph 1023.6mb 72f
4:00pm 1ft 4s 4 7 mph 1024.1mb 72f
2:00pm 1.3ft 4s 4 7 mph 1025.2mb 71f
1:00pm 1.3ft 4s 7 9 mph 1025.7mb 70f
12:00pm 1.3ft 4s 4 7 mph 1025.9mb 70f
10:00am 1.3ft 4s 9 13 mph 1025.9mb 71f
9:00am 1.3ft 4s 9 11 mph 1025.6mb 71f
7:00am 1.3ft 3s 7 9 mph 1025.4mb 71f
4:00am 1ft 5s 9 13 mph 1024.2mb 71f
3:00am 1ft 5s 9 11 mph 1024mb 71f
1:00am 1.3ft 5s 7 9 mph 1023.9mb 71f
Sun 08/28 11:00pm 1.3ft 3s 9 11 mph 1023.6mb 72f
9:00pm 1.6ft 3s 9 11 mph 1022.9mb 72f
8:00pm 1.3ft 3s 11 13 mph 1022.5mb 72f
7:00pm 1ft 15s 13 18 mph 1021.7mb 72f
6:00pm 0.7ft 15s 13 16 mph 1021.3mb 72f
5:00pm 0.3ft 3s 9
mph
1021.5mb 74f
4:00pm 0.3ft 3s 7 9 mph 1021.9mb 74f
3:00pm 0.7ft 2s 4
mph
1021.6mb 75f
2:00pm 0.7ft 3s 7 9 mph 1021.8mb 74f
1:00pm 0.7ft 3s 4
mph
1022.2mb 75f
12:00pm 0.7ft 3s 4
mph
1022.2mb 75f
11:00am 1ft 3s 4 7 mph 1022mb 74f
10:00am 1.3ft 3s 7 9 mph 1021.6mb 73f
9:00am 1.3ft 4s 9 11 mph 1021.2mb 73f
7:00am 1.3ft 3s 13 16 mph 1020.5mb 73f
6:00am 1.3ft 3s 13 16 mph 1020.2mb 72f
5:00am 1.3ft 3s 11 13 mph 1019.7mb 72f
4:00am 1.3ft 3s 13 16 mph 1019.6mb 73f
3:00am 1.3ft 4s 11 13 mph 1019.4mb 73f
2:00am 1.6ft 4s 11 13 mph 1019.5mb 72f
1:00am 2ft 4s 13
mph
1019.5mb 72f
12:00am 2ft 3s 13 16 mph 1019.7mb 72f
Sat 08/27 11:00pm 2ft 4s 13 16 mph 1019.8mb 72f